createdAt,value
2023-05-08T00:04:29.378Z,5.14
2023-05-08T00:09:31.985Z,5.12
2023-05-08T00:14:34.874Z,5.09
2023-05-08T00:19:37.372Z,5.06
2023-05-08T00:24:40.061Z,5.01
2023-05-08T00:29:43.164Z,4.94
2023-05-08T00:34:45.747Z,4.87
2023-05-08T00:39:48.333Z,4.77
2023-05-08T00:44:51.067Z,4.62
2023-05-08T00:49:53.624Z,4.46
2023-05-08T00:54:56.551Z,4.34
2023-05-08T01:00:03.147Z,4.28
2023-05-08T01:05:06.420Z,4.22
2023-05-08T01:10:09.867Z,4.17
2023-05-08T01:15:18.332Z,4.10
2023-05-08T01:20:53.019Z,4.07
2023-05-08T01:26:15.751Z,4.02
2023-05-08T01:31:50.663Z,3.98
2023-05-08T01:37:03.301Z,3.95
2023-05-08T01:42:28.824Z,3.90
2023-05-08T01:47:37.502Z,3.78
2023-05-08T01:52:48.153Z,3.71
2023-05-08T01:57:53.882Z,3.66
2023-05-08T02:02:58.718Z,3.63
2023-05-08T02:08:04.243Z,3.62
2023-05-08T02:13:08.802Z,3.58
2023-05-08T02:18:13.167Z,3.52
2023-05-08T02:23:17.892Z,3.48
2023-05-08T02:28:21.875Z,3.45
2023-05-08T02:33:26.099Z,3.39
2023-05-08T02:38:30.251Z,3.32
2023-05-08T02:43:33.168Z,3.27
2023-05-08T02:48:47.855Z,3.22
2023-05-08T02:54:10.479Z,3.17
2023-05-08T02:59:31.440Z,3.14
2023-05-08T03:04:47.552Z,3.13
2023-05-08T03:10:05.519Z,3.07
2023-05-08T03:15:15.167Z,2.99
2023-05-08T03:20:19.691Z,2.95
2023-05-08T03:25:23.271Z,2.97
2023-05-08T03:30:27.664Z,2.98
2023-05-08T03:35:32.067Z,3.00
2023-05-08T03:40:38.826Z,3.02
2023-05-08T03:45:41.685Z,3.03
2023-05-08T03:50:45.055Z,3.07
2023-05-08T03:55:47.646Z,3.11
2023-05-08T04:01:11.687Z,3.15
2023-05-08T04:06:22.438Z,3.21
2023-05-08T04:11:58.197Z,3.33
2023-05-08T04:17:04.040Z,3.51
2023-05-08T04:22:10.391Z,3.71
2023-05-08T04:27:13.964Z,3.89
2023-05-08T04:32:17.383Z,4.08
2023-05-08T04:37:25.696Z,4.31
2023-05-08T04:42:29.014Z,4.55
2023-05-08T04:47:31.645Z,4.76
2023-05-08T04:52:34.296Z,4.93
2023-05-08T04:57:36.870Z,5.12
2023-05-08T05:02:39.490Z,5.31
2023-05-08T05:07:42.211Z,5.52
2023-05-08T05:12:44.928Z,5.99
2023-05-08T05:17:47.605Z,10.14
2023-05-08T05:22:50.341Z,15.59
2023-05-08T05:27:53.033Z,19.74
2023-05-08T05:32:55.797Z,22.94
2023-05-08T05:37:58.327Z,25.49
2023-05-08T05:43:00.826Z,27.34
2023-05-08T05:48:03.518Z,28.83
2023-05-08T05:53:06.230Z,29.96
2023-05-08T05:58:09.012Z,30.70
2023-05-08T06:03:12.291Z,31.24
2023-05-08T06:08:16.461Z,31.79
2023-05-08T06:13:19.973Z,32.17
2023-05-08T06:18:22.726Z,32.54
2023-05-08T06:23:26.153Z,32.84
2023-05-08T06:28:28.753Z,33.12
2023-05-08T06:33:34.388Z,33.37
2023-05-08T06:38:36.997Z,33.67
2023-05-08T06:43:39.578Z,34.05
2023-05-08T06:48:42.337Z,34.07
2023-05-08T06:53:44.835Z,34.06
2023-05-08T06:58:56.943Z,34.10
2023-05-08T07:04:04.125Z,34.12
2023-05-08T07:09:06.666Z,33.95
2023-05-08T07:14:09.205Z,33.73
2023-05-08T07:19:11.841Z,33.61
2023-05-08T07:24:14.442Z,33.66
2023-05-08T07:29:16.979Z,33.79
2023-05-08T07:34:19.684Z,33.51
2023-05-08T07:39:22.173Z,33.56
2023-05-08T07:44:25.032Z,33.83
2023-05-08T07:49:27.588Z,33.47
2023-05-08T07:54:30.188Z,32.35
2023-05-08T07:59:32.806Z,31.35
2023-05-08T08:04:35.776Z,31.11
2023-05-08T08:09:38.586Z,30.85
2023-05-08T08:14:41.174Z,29.99
2023-05-08T08:19:43.657Z,28.97
2023-05-08T08:24:46.499Z,27.98
2023-05-08T08:29:49.778Z,27.32
2023-05-08T08:34:52.856Z,27.20
2023-05-08T08:39:56.322Z,26.87
2023-05-08T08:44:59.232Z,26.15
2023-05-08T08:50:04.151Z,25.31
2023-05-08T08:55:09.936Z,24.21
2023-05-08T09:00:13.337Z,23.83
2023-05-08T09:05:16.433Z,23.75
2023-05-08T09:10:20.504Z,23.58
2023-05-08T09:15:23.283Z,23.42
2023-05-08T09:20:26.621Z,23.55
2023-05-08T09:25:47.489Z,23.81
2023-05-08T09:30:57.081Z,23.44
2023-05-08T09:35:59.632Z,22.55
2023-05-08T09:41:18.309Z,21.98
2023-05-08T09:46:22.496Z,21.68
2023-05-08T09:51:26.935Z,21.28
2023-05-08T09:56:36.842Z,20.86
2023-05-08T10:01:39.604Z,20.76
2023-05-08T10:06:42.445Z,20.78
2023-05-08T10:11:55.323Z,20.56
2023-05-08T10:17:00.458Z,20.27
2023-05-08T10:22:04.943Z,20.30
2023-05-08T10:27:17.723Z,20.23
2023-05-08T10:32:22.927Z,20.15
2023-05-08T10:37:29.822Z,20.15
2023-05-08T10:42:36.958Z,20.06
2023-05-08T10:47:51.171Z,19.97
2023-05-08T10:53:02.316Z,19.81
2023-05-08T10:58:26.241Z,19.66
2023-05-08T11:03:33.086Z,19.50
2023-05-08T11:08:49.026Z,19.43
2023-05-08T11:13:55.976Z,19.54
2023-05-08T11:19:16.658Z,19.55
2023-05-08T11:24:34.704Z,19.64
2023-05-08T11:29:38.472Z,19.61
2023-05-08T11:34:44.079Z,19.52
2023-05-08T11:39:47.567Z,19.56
2023-05-08T11:45:04.702Z,19.55
2023-05-08T11:50:12.346Z,19.58
2023-05-08T11:55:15.798Z,19.70
2023-05-08T12:00:18.915Z,19.62
2023-05-08T12:05:28.067Z,19.42
2023-05-08T12:10:30.635Z,19.46
2023-05-08T12:15:33.193Z,19.60
2023-05-08T12:20:36.084Z,19.77
2023-05-08T12:25:39.898Z,19.81
2023-05-08T12:30:42.654Z,19.67
2023-05-08T12:35:45.564Z,19.67
2023-05-08T12:40:57.366Z,19.68
2023-05-08T12:46:01.460Z,19.80
2023-05-08T12:51:05.702Z,19.73
2023-05-08T12:56:08.606Z,19.81
2023-05-08T13:01:13.634Z,19.86
2023-05-08T13:06:21.658Z,19.87
2023-05-08T13:11:34.288Z,19.77
2023-05-08T13:16:44.407Z,19.87
2023-05-08T13:21:47.533Z,20.01
2023-05-08T13:26:50.166Z,20.00
2023-05-08T13:31:53.122Z,20.04
2023-05-08T13:36:55.726Z,20.04
2023-05-08T13:41:58.601Z,20.00
2023-05-08T13:47:01.163Z,20.05
2023-05-08T13:52:03.917Z,19.96
2023-05-08T13:57:06.598Z,19.88
2023-05-08T14:02:09.216Z,19.85
2023-05-08T14:07:11.899Z,19.95
2023-05-08T14:12:14.836Z,20.07
2023-05-08T14:17:17.382Z,20.07
2023-05-08T14:22:20.018Z,19.96
2023-05-08T14:27:22.742Z,19.97
2023-05-08T14:32:25.576Z,20.08
2023-05-08T14:37:28.480Z,20.08
2023-05-08T14:42:31.300Z,20.05
2023-05-08T14:47:33.914Z,20.04
2023-05-08T14:52:37.587Z,20.12
2023-05-08T14:57:40.108Z,20.10
2023-05-08T15:02:43.535Z,20.13
2023-05-08T15:07:46.488Z,20.19
2023-05-08T15:12:49.894Z,20.01
2023-05-08T15:17:52.521Z,19.73
2023-05-08T15:22:55.176Z,19.76
2023-05-08T15:28:00.701Z,19.85
2023-05-08T15:33:04.001Z,19.78
2023-05-08T15:38:07.615Z,19.64
2023-05-08T15:43:11.156Z,19.59
2023-05-08T15:48:13.763Z,19.55
2023-05-08T15:53:16.564Z,19.44
2023-05-08T15:58:19.260Z,19.37
2023-05-08T16:03:22.122Z,19.36
2023-05-08T16:08:25.252Z,19.27
2023-05-08T16:13:28.384Z,19.02
2023-05-08T16:18:30.950Z,18.83
2023-05-08T16:23:33.488Z,18.73
2023-05-08T16:28:36.074Z,18.62
2023-05-08T16:33:39.700Z,18.54
2023-05-08T16:38:42.338Z,18.50
2023-05-08T16:43:44.880Z,18.49
2023-05-08T16:48:48.661Z,18.49
2023-05-08T16:53:51.523Z,18.51
2023-05-08T16:58:56.205Z,18.42
2023-05-08T17:03:58.762Z,18.28
2023-05-08T17:09:01.310Z,18.14
2023-05-08T17:14:03.865Z,18.00
2023-05-08T17:19:06.791Z,17.75
2023-05-08T17:24:09.328Z,17.50
2023-05-08T17:29:11.915Z,17.31
2023-05-08T17:34:14.585Z,17.12
2023-05-08T17:39:19.899Z,16.92
2023-05-08T17:44:22.506Z,16.72
2023-05-08T17:49:25.528Z,16.51
2023-05-08T17:54:28.160Z,16.30
2023-05-08T17:59:30.700Z,16.05
2023-05-08T18:04:33.290Z,15.81
2023-05-08T18:09:35.939Z,15.58
2023-05-08T18:14:38.866Z,15.37
2023-05-08T18:19:41.539Z,15.14
2023-05-08T18:24:45.526Z,14.82
2023-05-08T18:29:48.836Z,14.58
2023-05-08T18:34:52.028Z,14.33
2023-05-08T18:39:54.692Z,14.13
2023-05-08T18:44:57.303Z,13.92
2023-05-08T18:50:00.322Z,13.75
2023-05-08T18:55:04.111Z,13.60
2023-05-08T19:00:07.638Z,13.41
2023-05-08T19:05:10.551Z,13.30
2023-05-08T19:10:13.492Z,13.22
2023-05-08T19:15:16.505Z,13.10
2023-05-08T19:20:19.145Z,12.97
2023-05-08T19:25:22.094Z,12.79
2023-05-08T19:30:24.694Z,12.63
2023-05-08T19:35:27.407Z,12.49
2023-05-08T19:40:31.830Z,12.38
2023-05-08T19:45:35.049Z,12.25
2023-05-08T19:50:37.614Z,12.04
2023-05-08T19:55:40.418Z,11.85
2023-05-08T20:00:42.956Z,11.70
2023-05-08T20:05:46.052Z,11.56
2023-05-08T20:10:49.169Z,11.42
2023-05-08T20:15:54.762Z,11.31
2023-05-08T20:20:57.363Z,11.23
2023-05-08T20:26:00.031Z,11.17
2023-05-08T20:31:02.863Z,11.07
2023-05-08T20:36:05.840Z,10.95
2023-05-08T20:41:08.501Z,10.85
2023-05-08T20:46:11.130Z,10.73
2023-05-08T20:51:15.457Z,10.64
2023-05-08T20:56:19.240Z,10.56
2023-05-08T21:01:21.991Z,10.48
2023-05-08T21:06:24.807Z,10.40
2023-05-08T21:11:27.391Z,10.28
2023-05-08T21:16:30.104Z,10.15
2023-05-08T21:21:32.748Z,10.01
2023-05-08T21:26:35.316Z,9.88
2023-05-08T21:31:37.967Z,9.77
2023-05-08T21:36:40.658Z,9.63
2023-05-08T21:41:44.515Z,9.50
2023-05-08T21:46:48.124Z,9.38
2023-05-08T21:51:50.809Z,9.27
2023-05-08T21:56:53.691Z,9.16
2023-05-08T22:01:56.345Z,9.02
2023-05-08T22:06:58.976Z,8.86
2023-05-08T22:12:01.538Z,8.74
2023-05-08T22:17:04.156Z,8.66
2023-05-08T22:22:06.716Z,8.58
2023-05-08T22:27:09.299Z,8.49
2023-05-08T22:32:12.583Z,8.41
2023-05-08T22:37:17.483Z,8.31
2023-05-08T22:42:20.168Z,8.23
2023-05-08T22:47:22.768Z,8.12
2023-05-08T22:52:25.385Z,8.03
2023-05-08T22:57:27.930Z,7.90
2023-05-08T23:02:35.121Z,7.78
2023-05-08T23:07:37.881Z,7.72
2023-05-08T23:12:40.489Z,7.64
2023-05-08T23:17:43.131Z,7.55
2023-05-08T23:22:45.877Z,7.49
2023-05-08T23:27:49.164Z,7.42
2023-05-08T23:32:51.908Z,7.38
2023-05-08T23:37:54.599Z,7.36
2023-05-08T23:42:57.203Z,7.33
2023-05-08T23:48:00.880Z,7.29
2023-05-08T23:53:03.470Z,7.24
2023-05-08T23:58:07.414Z,7.19
